Tropical Cyclones
[Index]
Main Index Home Page Stock Weather Photos Extreme Storms Discussion Storm News and Storm Chasing Reports Tropical Cyclones / Hurricanes / Typhoons Weather Data and Links Wild Fires / Bushfires Weather Observation Techniques Weather Picture Catalogue Tornado Pictures and Reports Stock Video Footage and DVDs for sale
Season 2004-2005 Tropical Cyclone ERNEST Track Map
Season 2004-2005 Summaries (Operational Data): [AU] [SIO] [SPAC] [SH]
<<- Previous TC | 2004-2005 Season | Next TC ->>

click for intensity scale information  Lat/long Grid: Show Hide

 Date Labels: Show Hide

Operational Tropical Cyclone Data : JTWC Advisories

Name: ERNEST
Number: 0512

17 Jan 2005 06:00 UTC to 25 Jan 2005 00:00 UTC

    date/time    lat    long     hPa   cat  kts
2005-01-17 06    9.6    57.6    1000         25          
2005-01-17 12    9.5    56.8    1005         25          
2005-01-19 06    9.5    48.0    1005         20          
2005-01-19 12   11.1    49.3    1004         25          
2005-01-19 18   12.4    47.9    1004         25          
2005-01-20 00   12.3    46.5    1002         25          
2005-01-20 06   12.7    45.4     993    1    40          
2005-01-20 12   13.5    44.1     985    2    50          
2005-01-20 18   14.1    43.3     970    3    65          
2005-01-21 00   15.0    42.7     970    3    65          
2005-01-21 06   16.2    42.0     970    3    65          
2005-01-21 12   16.9    41.7     970    3    65          
2005-01-21 18   18.0    41.9     963    3    70          
2005-01-22 00   19.6    42.0     955    3    80          
2005-01-22 06   20.6    41.9     940    4    90          
2005-01-22 12   21.9    42.1     940    4    90          
2005-01-22 18   23.0    42.4     941    4    90          
2005-01-23 00   23.9    42.5     950    3    80          
2005-01-23 06   24.5    43.5     955    3    75          
2005-01-23 12   25.6    44.9     965    3    70          
2005-01-23 18   27.3    46.4     980    2    55          
2005-01-24 00   28.3    47.9     985    2    50          
2005-01-24 06   29.0    49.3     987    2    50          
2005-01-24 12   31.1    52.7     988    2    50          
2005-01-24 18   32.5    56.0     988    3    65          
2005-01-25 00   35.5    61.0     990    3    65          
Winds are 10-min average.

Tropical cyclone tracks developed by Michael Bath using operational warnings and advisories and Google Maps.


[Australian Severe Weather index] [Copyright Notice] [Email Contacts] [Search This Site] [Privacy Policy]
Document: tropical_cyclone_ernest.htm Updated: 28 May 2013